Terminal Aerodrome Forecast
Issued by NWS Goodland, KS

Home | Current Version | Previous Version | Text Only | Print | Product List | Glossary On
Versions: 1 2 3 4 5 6 7 8 9 10 11 12
000
FTUS43 KGLD 261120
TAFGLD
TAF
KGLD 261120Z 2612/2712 19007KT P6SM SCT300
      TEMPO 2612/2614 5SM BR
     FM261700 20012G18KT P6SM SCT280
     FM262000 19015G25KT P6SM SCT280
     FM270200 17013G20KT P6SM SCT300
     FM271000 21012KT P6SM BKN250=

USA.gov is the U.S. government's official web portal to all federal, state and local government web resources and services.